createdAt,value
2022-09-20T00:01:33.766Z,9.72
2022-09-20T00:04:05.855Z,9.55
2022-09-20T00:06:34.958Z,8.93
2022-09-20T00:09:03.692Z,9.09
2022-09-20T00:11:33.775Z,9.43
2022-09-20T00:14:03.158Z,9.47
2022-09-20T00:16:33.501Z,9.53
2022-09-20T00:19:06.091Z,9.69
2022-09-20T00:21:36.548Z,9.20
2022-09-20T00:24:06.147Z,9.63
2022-09-20T00:26:34.548Z,9.73
2022-09-20T00:29:02.733Z,9.80
2022-09-20T00:31:30.960Z,9.80
2022-09-20T00:34:17.016Z,9.77
2022-09-20T00:36:46.785Z,9.74
2022-09-20T00:39:16.670Z,9.85
2022-09-20T00:41:45.048Z,9.81
2022-09-20T00:44:52.259Z,9.80
2022-09-20T00:47:26.911Z,9.84
2022-09-20T00:50:01.260Z,9.84
2022-09-20T00:52:31.601Z,9.79
2022-09-20T00:55:01.511Z,9.78
2022-09-20T00:57:35.333Z,9.84
2022-09-20T01:00:07.276Z,9.70
2022-09-20T01:02:38.864Z,9.65
2022-09-20T01:05:10.160Z,9.61
2022-09-20T01:07:40.236Z,9.63
2022-09-20T01:10:08.811Z,9.91
2022-09-20T01:12:40.541Z,9.27
2022-09-20T01:15:10.859Z,9.77
2022-09-20T01:17:44.219Z,9.52
2022-09-20T01:20:18.199Z,9.58
2022-09-20T01:23:00.014Z,8.90
2022-09-20T01:25:52.401Z,9.37
2022-09-20T01:28:22.929Z,9.33
2022-09-20T01:31:02.252Z,9.27
2022-09-20T01:33:37.838Z,9.45
2022-09-20T01:36:07.510Z,9.46
2022-09-20T01:38:44.331Z,9.60
2022-09-20T01:41:18.448Z,9.51
2022-09-20T01:43:53.199Z,9.38
2022-09-20T01:46:32.363Z,9.45
2022-09-20T01:49:12.498Z,9.61
2022-09-20T01:52:09.211Z,9.48
2022-09-20T01:55:24.390Z,9.82
2022-09-20T01:58:29.474Z,9.60
2022-09-20T02:01:23.783Z,9.61
2022-09-20T02:04:11.261Z,9.63
2022-09-20T02:07:09.059Z,9.68
2022-09-20T02:09:58.057Z,9.54
2022-09-20T02:12:52.031Z,9.44
2022-09-20T02:15:41.439Z,9.22
2022-09-20T02:18:24.421Z,9.33
2022-09-20T02:20:58.041Z,8.67
2022-09-20T02:23:41.899Z,9.44
2022-09-20T02:26:23.123Z,9.55
2022-09-20T02:28:57.248Z,9.47
2022-09-20T02:31:42.782Z,9.59
2022-09-20T02:34:40.662Z,9.60
2022-09-20T02:37:27.031Z,9.43
2022-09-20T02:40:10.637Z,9.39
2022-09-20T02:42:46.311Z,9.35
2022-09-20T02:45:24.267Z,9.48
2022-09-20T02:47:59.378Z,9.51
2022-09-20T02:50:38.621Z,9.50
2022-09-20T02:53:19.999Z,9.37
2022-09-20T02:55:55.398Z,9.15
2022-09-20T02:58:34.513Z,9.29
2022-09-20T03:01:10.657Z,9.31
2022-09-20T03:03:48.479Z,9.33
2022-09-20T03:06:26.296Z,9.27
2022-09-20T03:09:02.410Z,9.22
2022-09-20T03:11:37.404Z,9.25
2022-09-20T03:14:15.239Z,9.23
2022-09-20T03:16:57.791Z,9.12
2022-09-20T03:19:36.951Z,9.31
2022-09-20T03:22:19.795Z,8.65
2022-09-20T03:25:02.430Z,9.23
2022-09-20T03:27:37.976Z,9.36
2022-09-20T03:30:21.336Z,9.30
2022-09-20T03:33:02.965Z,9.22
2022-09-20T03:35:47.531Z,9.19
2022-09-20T03:38:30.580Z,9.26
2022-09-20T03:41:17.908Z,9.25
2022-09-20T03:44:05.718Z,9.13
2022-09-20T03:46:45.240Z,9.14
2022-09-20T03:49:54.952Z,9.27
2022-09-20T03:52:42.968Z,9.25
2022-09-20T03:55:43.149Z,9.21
2022-09-20T03:58:36.060Z,9.12
2022-09-20T04:01:29.358Z,9.00
2022-09-20T04:04:05.038Z,9.12
2022-09-20T04:06:49.238Z,9.16
2022-09-20T04:09:48.690Z,9.22
2022-09-20T04:12:29.031Z,9.27
2022-09-20T04:15:08.570Z,9.25
2022-09-20T04:17:49.060Z,9.09
2022-09-20T04:20:21.963Z,9.27
2022-09-20T04:22:54.389Z,9.19
2022-09-20T04:25:28.931Z,9.18
2022-09-20T04:28:04.148Z,9.12
2022-09-20T04:30:37.752Z,9.14
2022-09-20T04:33:15.908Z,9.15
2022-09-20T04:36:11.409Z,8.79
2022-09-20T04:38:40.411Z,8.84
2022-09-20T04:41:37.989Z,8.82
2022-09-20T04:44:51.318Z,8.88
2022-09-20T04:47:44.478Z,8.88
2022-09-20T04:50:48.009Z,8.94
2022-09-20T04:53:48.111Z,8.87
2022-09-20T04:56:22.604Z,8.68
2022-09-20T04:59:06.120Z,8.73
2022-09-20T05:02:16.022Z,8.91
2022-09-20T05:05:26.008Z,9.00
2022-09-20T05:08:30.135Z,8.96
2022-09-20T05:11:32.103Z,9.00
2022-09-20T05:14:26.215Z,8.95
2022-09-20T05:17:14.931Z,9.02
2022-09-20T05:20:02.790Z,9.07
2022-09-20T05:22:56.493Z,9.03
2022-09-20T05:25:48.689Z,9.19
2022-09-20T05:28:26.678Z,8.94
2022-09-20T05:30:59.268Z,8.86
2022-09-20T05:33:36.812Z,8.85
2022-09-20T05:36:14.944Z,8.99
2022-09-20T05:38:49.892Z,8.80
2022-09-20T05:41:32.041Z,9.27
2022-09-20T05:44:10.208Z,9.37
2022-09-20T05:46:51.429Z,9.41
2022-09-20T05:49:34.660Z,9.50
2022-09-20T05:52:18.331Z,9.75
2022-09-20T05:55:09.327Z,9.80
2022-09-20T05:57:50.919Z,9.84
2022-09-20T06:00:21.829Z,9.87
2022-09-20T06:02:58.723Z,9.91
2022-09-20T06:05:35.059Z,9.40
2022-09-20T06:08:20.331Z,9.96
2022-09-20T06:11:01.788Z,9.91
2022-09-20T06:13:42.739Z,9.79
2022-09-20T06:16:17.505Z,9.79
2022-09-20T06:18:55.850Z,9.78
2022-09-20T06:21:32.871Z,9.89
2022-09-20T06:24:03.270Z,9.89
2022-09-20T06:26:37.053Z,9.88
2022-09-20T06:29:09.189Z,9.97
2022-09-20T06:31:38.276Z,9.89
2022-09-20T06:34:10.151Z,10.00
2022-09-20T06:36:58.060Z,10.08
2022-09-20T06:39:52.091Z,10.05
2022-09-20T06:42:25.296Z,10.16
2022-09-20T06:44:55.767Z,10.13
2022-09-20T06:47:24.235Z,10.31
2022-09-20T06:49:52.518Z,10.37
2022-09-20T06:52:22.780Z,10.60
2022-09-20T06:54:54.379Z,10.76
2022-09-20T06:57:32.453Z,11.01
2022-09-20T07:00:00.617Z,11.34
2022-09-20T07:02:28.866Z,11.44
2022-09-20T07:04:59.456Z,11.56
2022-09-20T07:07:27.718Z,11.53
2022-09-20T07:09:55.829Z,11.39
2022-09-20T07:12:25.761Z,11.47
2022-09-20T07:14:54.474Z,11.58
2022-09-20T07:17:22.878Z,11.39
2022-09-20T07:19:51.199Z,11.84
2022-09-20T07:22:19.272Z,11.80
2022-09-20T07:24:48.460Z,11.76
2022-09-20T07:27:16.625Z,12.03
2022-09-20T07:29:46.696Z,11.97
2022-09-20T07:32:15.515Z,11.63
2022-09-20T07:34:43.591Z,11.63
2022-09-20T07:37:11.879Z,11.74
2022-09-20T07:39:40.221Z,11.95
2022-09-20T07:42:08.398Z,12.48
2022-09-20T07:44:36.551Z,12.86
2022-09-20T07:47:06.529Z,13.12
2022-09-20T07:49:34.612Z,13.41
2022-09-20T07:52:03.429Z,13.46
2022-09-20T07:54:31.670Z,13.53
2022-09-20T07:57:00.349Z,13.55
2022-09-20T07:59:28.448Z,13.50
2022-09-20T08:01:57.817Z,13.50
2022-09-20T08:04:27.618Z,13.42
2022-09-20T08:06:55.737Z,13.46
2022-09-20T08:09:23.829Z,13.45
2022-09-20T08:11:52.467Z,13.45
2022-09-20T08:14:21.051Z,13.56
2022-09-20T08:16:50.678Z,13.16
2022-09-20T08:19:21.005Z,13.20
2022-09-20T08:21:51.675Z,13.39
2022-09-20T08:24:19.960Z,13.72
2022-09-20T08:26:48.639Z,14.16
2022-09-20T08:29:16.890Z,14.48
2022-09-20T08:31:45.258Z,14.72
2022-09-20T08:34:15.272Z,14.96
2022-09-20T08:36:46.929Z,15.20
2022-09-20T08:42:14.425Z,15.77
2022-09-20T08:44:57.868Z,15.90
2022-09-20T08:47:29.213Z,15.78
2022-09-20T08:49:57.799Z,16.01
2022-09-20T08:52:36.367Z,16.08
2022-09-20T08:55:17.093Z,16.37
2022-09-20T08:57:49.332Z,16.46
2022-09-20T09:00:19.798Z,16.39
2022-09-20T09:02:48.377Z,16.23
2022-09-20T09:05:32.703Z,16.10
2022-09-20T09:08:04.622Z,16.05
2022-09-20T09:10:44.825Z,16.01
2022-09-20T09:13:23.191Z,16.08
2022-09-20T09:15:58.279Z,16.13
2022-09-20T09:18:35.322Z,16.32
2022-09-20T09:21:05.502Z,16.47
2022-09-20T09:23:42.255Z,16.32
2022-09-20T09:26:21.419Z,16.06
2022-09-20T09:29:09.932Z,16.06
2022-09-20T09:31:39.987Z,16.31
2022-09-20T09:34:24.542Z,16.42
2022-09-20T09:36:54.580Z,16.43
2022-09-20T09:39:27.109Z,16.58
2022-09-20T09:41:58.048Z,16.60
2022-09-20T09:44:28.880Z,16.78
2022-09-20T09:46:58.140Z,16.83
2022-09-20T09:49:28.052Z,16.83
2022-09-20T09:52:06.352Z,16.62
2022-09-20T09:54:38.440Z,16.31
2022-09-20T09:57:30.789Z,16.64
2022-09-20T10:00:18.294Z,16.75
2022-09-20T10:03:09.320Z,16.98
2022-09-20T10:05:47.598Z,17.02
2022-09-20T10:08:29.688Z,16.58
2022-09-20T10:11:07.595Z,16.98
2022-09-20T10:13:44.304Z,16.90
2022-09-20T10:16:23.648Z,16.78
2022-09-20T10:19:00.900Z,16.76
2022-09-20T10:21:41.519Z,16.73
2022-09-20T10:24:19.320Z,16.33
2022-09-20T10:27:06.699Z,16.89
2022-09-20T10:29:46.582Z,16.85
2022-09-20T10:32:28.788Z,16.84
2022-09-20T10:35:08.969Z,16.85
2022-09-20T10:37:51.269Z,16.86
2022-09-20T10:40:48.630Z,16.78
2022-09-20T10:43:41.790Z,16.99
2022-09-20T10:46:37.952Z,17.11
2022-09-20T10:49:23.837Z,17.17
2022-09-20T10:52:04.536Z,17.62
2022-09-20T10:54:46.772Z,17.90
2022-09-20T10:57:39.690Z,18.15
2022-09-20T11:00:21.551Z,18.40
2022-09-20T11:03:09.899Z,18.01
2022-09-20T11:05:55.800Z,18.73
2022-09-20T11:08:27.994Z,18.71
2022-09-20T11:11:00.300Z,18.48
2022-09-20T11:13:35.337Z,18.11
2022-09-20T11:16:11.241Z,17.51
2022-09-20T11:18:45.228Z,17.07
2022-09-20T11:21:22.076Z,16.82
2022-09-20T11:23:56.152Z,16.54
2022-09-20T11:26:31.821Z,16.03
2022-09-20T11:29:09.648Z,15.72
2022-09-20T11:31:40.949Z,15.48
2022-09-20T11:34:18.282Z,15.17
2022-09-20T11:36:54.730Z,15.06
2022-09-20T11:39:29.218Z,15.19
2022-09-20T11:42:00.532Z,15.62
2022-09-20T11:44:29.229Z,15.91
2022-09-20T11:47:02.951Z,15.82
2022-09-20T11:49:42.351Z,15.71
2022-09-20T11:52:38.590Z,16.07
2022-09-20T11:55:37.575Z,16.26
2022-09-20T11:58:09.410Z,16.18
2022-09-20T12:00:41.613Z,16.71
2022-09-20T12:03:27.080Z,16.66
2022-09-20T12:06:01.059Z,16.26
2022-09-20T12:08:33.602Z,15.91
2022-09-20T12:11:05.556Z,16.04
2022-09-20T12:13:36.871Z,16.54
2022-09-20T12:16:08.298Z,16.48
2022-09-20T12:19:02.543Z,16.47
2022-09-20T12:21:32.245Z,16.18
2022-09-20T12:24:20.268Z,16.08
2022-09-20T12:26:51.479Z,16.18
2022-09-20T12:29:55.301Z,16.13
2022-09-20T12:32:50.609Z,16.17
2022-09-20T12:36:00.742Z,16.33
2022-09-20T12:38:36.286Z,16.36
2022-09-20T12:41:11.151Z,15.97
2022-09-20T12:43:50.650Z,16.38
2022-09-20T12:46:24.731Z,16.52
2022-09-20T12:49:11.357Z,17.40
2022-09-20T12:51:56.962Z,17.51
2022-09-20T12:54:26.740Z,17.52
2022-09-20T12:56:55.230Z,17.00
2022-09-20T12:59:31.278Z,17.11
2022-09-20T13:02:34.365Z,17.38
2022-09-20T13:05:02.879Z,17.25
2022-09-20T13:07:43.577Z,17.63
2022-09-20T13:10:24.300Z,18.00
2022-09-20T13:12:57.380Z,17.42
2022-09-20T13:15:26.235Z,18.48
2022-09-20T13:17:57.942Z,18.92
2022-09-20T13:20:30.200Z,18.71
2022-09-20T13:23:00.632Z,19.04
2022-09-20T13:25:30.756Z,19.49
2022-09-20T13:28:08.177Z,19.92
2022-09-20T13:30:37.037Z,20.00
2022-09-20T13:33:22.420Z,19.73
2022-09-20T13:35:54.925Z,20.38
2022-09-20T13:38:31.979Z,20.36
2022-09-20T13:41:09.289Z,19.97
2022-09-20T13:43:41.419Z,20.20
2022-09-20T13:46:12.250Z,20.29
2022-09-20T13:48:40.974Z,20.80
2022-09-20T13:51:19.074Z,21.46
2022-09-20T13:53:48.117Z,21.58
2022-09-20T13:56:23.746Z,21.24
2022-09-20T13:58:52.870Z,22.02
2022-09-20T14:01:30.058Z,21.95
2022-09-20T14:04:04.902Z,22.01
2022-09-20T14:06:33.740Z,22.55
2022-09-20T14:09:10.477Z,22.70
2022-09-20T14:11:41.797Z,22.89
2022-09-20T14:14:17.462Z,23.51
2022-09-20T14:16:49.454Z,24.19
2022-09-20T14:19:20.259Z,24.12
2022-09-20T14:21:49.779Z,23.12
2022-09-20T14:24:28.932Z,22.47
2022-09-20T14:27:13.601Z,21.47
2022-09-20T14:29:43.770Z,20.66
2022-09-20T14:32:29.928Z,19.74
2022-09-20T14:35:04.520Z,19.09
2022-09-20T14:37:35.451Z,19.21
2022-09-20T14:40:07.366Z,18.82
2022-09-20T14:42:42.339Z,18.82
2022-09-20T14:45:23.886Z,19.59
2022-09-20T14:47:58.962Z,20.59
2022-09-20T14:50:30.363Z,20.95
2022-09-20T14:53:16.177Z,20.36
2022-09-20T14:55:57.509Z,19.70
2022-09-20T14:58:27.481Z,19.05
2022-09-20T15:00:59.202Z,18.91
2022-09-20T15:03:32.522Z,19.09
2022-09-20T15:06:01.134Z,19.57
2022-09-20T15:08:29.788Z,19.66
2022-09-20T15:10:57.970Z,19.26
2022-09-20T15:13:27.748Z,19.04
2022-09-20T15:15:56.412Z,18.45
2022-09-20T15:18:27.545Z,17.88
2022-09-20T15:20:56.391Z,17.91
2022-09-20T15:23:24.698Z,17.92
2022-09-20T15:25:54.815Z,17.57
2022-09-20T15:28:23.230Z,17.11
2022-09-20T15:30:53.103Z,16.96
2022-09-20T15:33:23.033Z,16.71
2022-09-20T15:35:51.645Z,15.79
2022-09-20T15:38:20.669Z,15.44
2022-09-20T15:40:50.311Z,16.01
2022-09-20T15:43:22.094Z,15.74
2022-09-20T15:45:53.374Z,15.60
2022-09-20T15:48:24.720Z,15.61
2022-09-20T15:51:03.246Z,15.55
2022-09-20T15:53:35.645Z,15.50
2022-09-20T15:56:05.358Z,15.47
2022-09-20T15:58:36.537Z,15.42
2022-09-20T16:01:08.581Z,15.30
2022-09-20T16:03:37.636Z,15.34
2022-09-20T16:06:08.333Z,15.33
2022-09-20T16:08:37.929Z,15.22
2022-09-20T16:11:06.998Z,15.21
2022-09-20T16:13:36.440Z,15.08
2022-09-20T16:16:07.070Z,15.04
2022-09-20T16:18:54.712Z,14.46
2022-09-20T16:21:23.420Z,14.30
2022-09-20T16:23:53.237Z,14.66
2022-09-20T16:26:23.484Z,14.41
2022-09-20T16:28:52.312Z,14.38
2022-09-20T16:31:40.225Z,14.39
2022-09-20T16:34:13.777Z,14.43
2022-09-20T16:36:43.536Z,14.39
2022-09-20T16:39:13.078Z,14.41
2022-09-20T16:41:41.878Z,14.27
2022-09-20T16:44:10.599Z,14.22
2022-09-20T16:46:40.441Z,14.21
2022-09-20T16:49:11.761Z,14.23
2022-09-20T16:51:43.057Z,14.04
2022-09-20T16:54:13.222Z,14.13
2022-09-20T16:56:43.362Z,14.04
2022-09-20T16:59:12.668Z,14.05
2022-09-20T17:01:42.643Z,13.92
2022-09-20T17:04:13.549Z,13.87
2022-09-20T17:06:43.461Z,13.75
2022-09-20T17:09:12.338Z,13.62
2022-09-20T17:11:42.495Z,13.64
2022-09-20T17:14:10.751Z,13.59
2022-09-20T17:16:42.454Z,13.41
2022-09-20T17:19:11.892Z,13.53
2022-09-20T17:21:43.557Z,13.31
2022-09-20T17:24:12.411Z,13.38
2022-09-20T17:26:41.947Z,12.59
2022-09-20T17:29:14.045Z,13.31
2022-09-20T17:31:48.775Z,13.28
2022-09-20T17:34:22.122Z,13.22
2022-09-20T17:36:51.067Z,13.09
2022-09-20T17:39:19.849Z,12.93
2022-09-20T17:41:49.718Z,13.00
2022-09-20T17:44:18.529Z,12.85
2022-09-20T17:46:50.069Z,12.82
2022-09-20T17:49:20.602Z,12.55
2022-09-20T17:51:50.216Z,12.66
2022-09-20T17:54:19.314Z,12.80
2022-09-20T17:56:49.055Z,12.39
2022-09-20T17:59:18.712Z,12.58
2022-09-20T18:01:50.002Z,12.59
2022-09-20T18:04:21.071Z,12.64
2022-09-20T18:06:51.031Z,12.32
2022-09-20T18:09:20.717Z,12.53
2022-09-20T18:11:50.269Z,12.41
2022-09-20T18:14:20.218Z,12.39
2022-09-20T18:16:52.496Z,12.27
2022-09-20T18:19:22.826Z,12.25
2022-09-20T18:21:51.381Z,12.41
2022-09-20T18:24:19.587Z,12.34
2022-09-20T18:26:47.708Z,12.22
2022-09-20T18:29:18.385Z,12.29
2022-09-20T18:31:50.841Z,12.25
2022-09-20T18:34:20.870Z,12.16
2022-09-20T18:36:53.313Z,12.18
2022-09-20T18:39:23.245Z,12.05
2022-09-20T18:41:51.639Z,11.24
2022-09-20T18:44:20.829Z,11.49
2022-09-20T18:46:53.564Z,11.07
2022-09-20T18:49:22.729Z,11.82
2022-09-20T18:51:50.970Z,11.71
2022-09-20T18:54:19.738Z,11.67
2022-09-20T18:56:50.102Z,11.52
2022-09-20T18:59:20.861Z,11.24
2022-09-20T19:02:24.323Z,11.65
2022-09-20T19:05:24.470Z,11.69
2022-09-20T19:08:04.358Z,11.79
2022-09-20T19:10:41.674Z,11.86
2022-09-20T19:13:24.493Z,11.84
2022-09-20T19:16:16.907Z,11.82
2022-09-20T19:19:04.311Z,11.86
2022-09-20T19:21:38.791Z,11.79
2022-09-20T19:24:19.119Z,11.82
2022-09-20T19:26:48.225Z,11.92
2022-09-20T19:29:22.198Z,11.74
2022-09-20T19:31:53.777Z,11.69
2022-09-20T19:34:25.893Z,11.70
2022-09-20T19:37:08.335Z,11.66
2022-09-20T19:39:49.072Z,11.37
2022-09-20T19:42:29.682Z,11.15
2022-09-20T19:45:10.043Z,11.14
2022-09-20T19:47:50.513Z,11.42
2022-09-20T19:50:29.602Z,11.11
2022-09-20T19:52:58.377Z,11.32
2022-09-20T19:55:27.198Z,11.43
2022-09-20T19:57:55.930Z,11.60
2022-09-20T20:00:24.929Z,11.66
2022-09-20T20:02:54.101Z,11.66
2022-09-20T20:05:27.774Z,11.69
2022-09-20T20:08:08.288Z,11.64
2022-09-20T20:10:47.805Z,11.70
2022-09-20T20:13:41.732Z,11.61
2022-09-20T20:16:15.912Z,11.75
2022-09-20T20:18:57.074Z,11.75
2022-09-20T20:21:45.570Z,11.74
2022-09-20T20:24:25.972Z,11.80
2022-09-20T20:26:54.458Z,11.28
2022-09-20T20:29:22.617Z,11.80
2022-09-20T20:31:50.728Z,11.67
2022-09-20T20:34:20.641Z,11.73
2022-09-20T20:36:50.128Z,11.36
2022-09-20T20:39:18.270Z,11.61
2022-09-20T20:41:52.725Z,11.59
2022-09-20T20:44:22.192Z,11.28
2022-09-20T20:46:50.935Z,11.30
2022-09-20T20:49:19.038Z,11.30
2022-09-20T20:51:47.809Z,11.13
2022-09-20T20:54:17.521Z,11.02
2022-09-20T20:56:45.650Z,11.10
2022-09-20T20:59:13.890Z,11.04
2022-09-20T21:01:44.793Z,11.07
2022-09-20T21:04:13.528Z,10.41
2022-09-20T21:06:42.758Z,11.07
2022-09-20T21:09:12.414Z,11.11
2022-09-20T21:11:44.482Z,10.42
2022-09-20T21:14:13.530Z,10.78
2022-09-20T21:16:43.684Z,10.55
2022-09-20T21:19:15.467Z,10.55
2022-09-20T21:21:45.518Z,10.45
2022-09-20T21:24:17.531Z,10.38
2022-09-20T21:26:48.640Z,10.22
2022-09-20T21:29:17.568Z,10.31
2022-09-20T21:31:48.512Z,10.41
2022-09-20T21:34:17.518Z,10.41
2022-09-20T21:36:45.931Z,10.44
2022-09-20T21:39:14.530Z,10.32
2022-09-20T21:41:43.834Z,10.38
2022-09-20T21:44:15.068Z,10.45
2022-09-20T21:46:43.508Z,10.36
2022-09-20T21:49:13.308Z,10.07
2022-09-20T21:51:44.093Z,10.21
2022-09-20T21:54:12.680Z,10.14
2022-09-20T21:56:41.542Z,10.06
2022-09-20T21:59:10.072Z,10.17
2022-09-20T22:01:41.327Z,10.01
2022-09-20T22:04:10.914Z,10.08
2022-09-20T22:06:40.848Z,9.78
2022-09-20T22:09:10.430Z,10.01
2022-09-20T22:11:40.138Z,10.06
2022-09-20T22:14:09.341Z,10.09
2022-09-20T22:16:40.394Z,9.99
2022-09-20T22:19:10.446Z,9.78
2022-09-20T22:21:40.350Z,9.40
2022-09-20T22:24:10.648Z,9.85
2022-09-20T22:26:41.449Z,9.34
2022-09-20T22:29:09.716Z,10.01
2022-09-20T22:31:45.109Z,9.88
2022-09-20T22:34:16.209Z,9.89
2022-09-20T22:36:44.808Z,9.29
2022-09-20T22:39:13.922Z,9.88
2022-09-20T22:41:42.962Z,9.94
2022-09-20T22:44:12.115Z,9.91
2022-09-20T22:46:41.849Z,10.03
2022-09-20T22:49:10.850Z,10.03
2022-09-20T22:51:39.735Z,10.00
2022-09-20T22:54:10.397Z,9.72
2022-09-20T22:56:41.676Z,9.93
2022-09-20T22:59:11.316Z,9.87
2022-09-20T23:01:43.095Z,9.75
2022-09-20T23:04:14.281Z,9.64
2022-09-20T23:06:44.508Z,9.66
2022-09-20T23:09:14.530Z,9.61
2022-09-20T23:11:43.636Z,9.26
2022-09-20T23:14:13.402Z,9.48
2022-09-20T23:16:44.278Z,9.38
2022-09-20T23:19:14.231Z,9.27
2022-09-20T23:21:44.000Z,8.99
2022-09-20T23:24:14.849Z,9.10
2022-09-20T23:26:44.591Z,9.07
2022-09-20T23:29:14.190Z,8.87
2022-09-20T23:31:46.341Z,9.06
2022-09-20T23:34:15.859Z,9.22
2022-09-20T23:36:45.198Z,9.21
2022-09-20T23:39:14.743Z,9.19
2022-09-20T23:41:46.971Z,9.24
2022-09-20T23:44:18.218Z,9.17
2022-09-20T23:46:47.692Z,9.14
2022-09-20T23:49:15.793Z,9.05
2022-09-20T23:51:44.099Z,9.28
2022-09-20T23:54:12.230Z,9.29
2022-09-20T23:56:40.378Z,9.11
2022-09-20T23:59:08.478Z,9.22
